createdAt,value
2016-11-23T00:00:17.567Z,0
2016-11-23T00:01:18.185Z,0
2016-11-23T00:02:18.818Z,0
2016-11-23T00:03:19.430Z,0
2016-11-23T00:04:20.048Z,0
2016-11-23T00:05:20.676Z,0
2016-11-23T00:06:21.293Z,0
2016-11-23T00:07:21.924Z,0
2016-11-23T00:08:22.543Z,0
2016-11-23T00:09:23.161Z,0
2016-11-23T00:10:23.784Z,0
2016-11-23T00:11:24.455Z,0
2016-11-23T00:12:25.074Z,0
2016-11-23T00:13:25.693Z,0
2016-11-23T00:14:26.322Z,0
2016-11-23T00:15:26.944Z,0
2016-11-23T00:16:27.567Z,0
2016-11-23T00:17:28.187Z,0
2016-11-23T00:18:28.818Z,0
2016-11-23T00:19:29.432Z,0
2016-11-23T00:20:30.041Z,0
2016-11-23T00:21:30.679Z,0
2016-11-23T00:22:31.295Z,0
2016-11-23T00:23:31.921Z,0
2016-11-23T00:24:32.552Z,0
2016-11-23T00:25:33.163Z,0
2016-11-23T00:26:33.787Z,0
2016-11-23T00:27:34.397Z,0
2016-11-23T00:28:35.027Z,0
2016-11-23T00:29:35.648Z,0
2016-11-23T00:30:36.266Z,0
2016-11-23T00:31:36.898Z,0
2016-11-23T00:32:37.552Z,0
2016-11-23T00:33:38.164Z,0
2016-11-23T00:34:38.802Z,0
2016-11-23T00:35:39.415Z,0
2016-11-23T00:36:40.048Z,0
2016-11-23T00:37:40.660Z,0
2016-11-23T00:38:41.313Z,0
2016-11-23T00:39:41.924Z,0
2016-11-23T00:40:42.568Z,0
2016-11-23T00:41:43.230Z,0
2016-11-23T00:42:43.861Z,0
2016-11-23T00:43:44.497Z,0
2016-11-23T00:44:45.198Z,0
2016-11-23T00:45:45.849Z,0
2016-11-23T00:46:46.459Z,0
2016-11-23T00:47:47.087Z,0
2016-11-23T00:48:47.705Z,0
2016-11-23T00:49:48.323Z,0
2016-11-23T00:50:48.947Z,0
2016-11-23T00:51:49.575Z,0
2016-11-23T00:52:50.191Z,0
2016-11-23T00:53:50.812Z,0
2016-11-23T00:54:51.433Z,0
2016-11-23T00:55:52.050Z,0
2016-11-23T00:56:52.670Z,0
2016-11-23T00:57:53.295Z,0
2016-11-23T00:58:53.915Z,0
2016-11-23T00:59:54.539Z,0
2016-11-23T01:00:55.160Z,0
2016-11-23T01:01:55.795Z,0
2016-11-23T01:02:56.424Z,0
2016-11-23T01:03:57.068Z,0
2016-11-23T01:04:57.698Z,0
2016-11-23T01:05:58.338Z,0
2016-11-23T01:06:58.963Z,0
2016-11-23T01:07:59.607Z,0
2016-11-23T01:09:00.229Z,0
2016-11-23T01:10:00.846Z,0
2016-11-23T01:11:01.471Z,0
2016-11-23T01:12:02.090Z,0
2016-11-23T01:13:02.709Z,0
2016-11-23T01:14:03.332Z,0
2016-11-23T01:15:03.972Z,0
2016-11-23T01:16:04.601Z,0
2016-11-23T01:17:05.213Z,0
2016-11-23T01:18:05.836Z,0
2016-11-23T01:19:06.447Z,0
2016-11-23T01:20:07.073Z,0
2016-11-23T01:21:07.685Z,0
2016-11-23T01:22:08.303Z,0
2016-11-23T01:23:08.934Z,0
2016-11-23T01:24:09.548Z,0
2016-11-23T01:25:10.183Z,0
2016-11-23T01:26:10.807Z,0
2016-11-23T01:27:11.432Z,0
2016-11-23T01:28:12.059Z,0
2016-11-23T01:29:12.668Z,0
2016-11-23T01:30:13.291Z,0
2016-11-23T01:31:13.901Z,0
2016-11-23T01:32:14.517Z,0
2016-11-23T01:33:15.138Z,0
2016-11-23T01:34:15.755Z,0
2016-11-23T01:35:16.381Z,0
2016-11-23T01:36:16.994Z,0
2016-11-23T01:37:17.617Z,0
2016-11-23T01:38:18.306Z,0
2016-11-23T01:39:18.920Z,0
2016-11-23T01:40:19.546Z,0
2016-11-23T01:41:20.164Z,0
2016-11-23T01:42:20.777Z,0
2016-11-23T01:43:21.420Z,0
2016-11-23T01:44:22.057Z,0
2016-11-23T01:45:22.686Z,0
2016-11-23T01:46:23.309Z,0
2016-11-23T01:47:23.934Z,0
2016-11-23T01:48:24.551Z,0
2016-11-23T01:49:25.172Z,0
2016-11-23T01:50:25.801Z,0
2016-11-23T01:51:26.412Z,0
2016-11-23T01:52:27.030Z,0
2016-11-23T01:53:27.661Z,0
2016-11-23T01:54:28.292Z,0
2016-11-23T01:55:28.908Z,0
2016-11-23T01:56:29.561Z,0
2016-11-23T01:57:30.182Z,0
2016-11-23T01:58:30.914Z,0
2016-11-23T01:59:31.521Z,0
2016-11-23T02:00:32.146Z,0
2016-11-23T02:01:32.773Z,0
2016-11-23T02:02:33.383Z,0
2016-11-23T02:03:34.006Z,0
2016-11-23T02:04:34.689Z,0
2016-11-23T02:05:35.306Z,0
2016-11-23T02:06:35.933Z,0
2016-11-23T02:07:36.571Z,0
2016-11-23T02:08:37.192Z,0
2016-11-23T02:09:37.809Z,0
2016-11-23T02:10:38.423Z,0
2016-11-23T02:11:39.048Z,0
2016-11-23T02:12:39.665Z,0
2016-11-23T02:13:40.290Z,0
2016-11-23T02:14:40.926Z,0
2016-11-23T02:15:41.546Z,0
2016-11-23T02:16:42.168Z,0
2016-11-23T02:17:42.786Z,0
2016-11-23T02:18:43.434Z,0
2016-11-23T02:19:44.061Z,0
2016-11-23T02:20:44.668Z,0
2016-11-23T02:21:45.296Z,0
2016-11-23T02:22:45.916Z,0
2016-11-23T02:23:46.538Z,0
2016-11-23T02:24:47.155Z,0
2016-11-23T02:25:47.779Z,0
2016-11-23T02:26:48.428Z,0
2016-11-23T02:27:49.050Z,0
2016-11-23T02:28:49.676Z,0
2016-11-23T02:29:50.306Z,0
2016-11-23T02:30:50.932Z,0
2016-11-23T02:31:51.616Z,0
2016-11-23T02:32:52.368Z,0
2016-11-23T02:33:52.983Z,0
2016-11-23T02:34:53.598Z,0
2016-11-23T02:35:54.235Z,0
2016-11-23T02:36:54.861Z,0
2016-11-23T02:37:55.488Z,0
2016-11-23T02:38:56.129Z,0
2016-11-23T02:39:56.743Z,0
2016-11-23T02:40:57.371Z,0
2016-11-23T02:41:57.994Z,0
2016-11-23T02:42:58.630Z,0
2016-11-23T02:43:59.343Z,0
2016-11-23T02:44:59.961Z,0
2016-11-23T02:46:00.592Z,0
2016-11-23T02:47:01.229Z,0
2016-11-23T02:48:01.849Z,0
2016-11-23T02:49:02.467Z,0
2016-11-23T02:50:03.096Z,0
2016-11-23T02:51:03.716Z,0
2016-11-23T02:52:04.331Z,0
2016-11-23T02:53:04.957Z,0
2016-11-23T02:54:05.578Z,0
2016-11-23T02:55:06.220Z,0
2016-11-23T02:56:06.838Z,0
2016-11-23T02:57:07.482Z,0
2016-11-23T02:58:08.140Z,0
2016-11-23T02:59:08.768Z,0
2016-11-23T03:00:09.393Z,0
2016-11-23T03:01:10.021Z,0
2016-11-23T03:02:10.633Z,0
2016-11-23T03:03:11.261Z,0
2016-11-23T03:04:11.893Z,0
2016-11-23T03:05:12.513Z,0
2016-11-23T03:06:13.120Z,0
2016-11-23T03:07:13.743Z,0
2016-11-23T03:08:14.363Z,0
2016-11-23T03:09:14.979Z,0
2016-11-23T03:10:15.597Z,0
2016-11-23T03:11:16.229Z,0
2016-11-23T03:12:16.858Z,0
2016-11-23T03:13:17.494Z,0
2016-11-23T03:14:18.190Z,0
2016-11-23T03:15:18.826Z,0
2016-11-23T03:16:19.447Z,0
2016-11-23T03:17:20.085Z,0
2016-11-23T03:18:20.720Z,0
2016-11-23T03:19:21.339Z,0
2016-11-23T03:20:21.964Z,0
2016-11-23T03:21:22.586Z,0
2016-11-23T03:22:23.233Z,0
2016-11-23T03:23:23.883Z,0
2016-11-23T03:24:24.501Z,0
2016-11-23T03:25:25.126Z,0
2016-11-23T03:26:25.771Z,0
2016-11-23T03:27:26.378Z,0
2016-11-23T03:28:27.020Z,0
2016-11-23T03:29:27.641Z,0
2016-11-23T03:30:28.278Z,0
2016-11-23T03:31:28.914Z,0
2016-11-23T03:32:29.534Z,0
2016-11-23T03:33:30.154Z,0
2016-11-23T03:34:30.809Z,0
2016-11-23T03:35:31.452Z,0
2016-11-23T03:36:32.073Z,0
2016-11-23T03:37:32.691Z,0
2016-11-23T03:38:33.321Z,0
2016-11-23T03:39:33.942Z,0
2016-11-23T03:40:34.574Z,0
2016-11-23T03:41:35.203Z,0
2016-11-23T03:42:35.832Z,0
2016-11-23T03:43:36.478Z,0
2016-11-23T03:44:37.090Z,0
2016-11-23T03:45:37.710Z,0
2016-11-23T03:46:38.328Z,0
2016-11-23T03:47:38.947Z,0
2016-11-23T03:48:39.571Z,0
2016-11-23T03:49:40.199Z,0
2016-11-23T03:50:40.854Z,0
2016-11-23T03:51:41.475Z,0
2016-11-23T03:52:42.108Z,0
2016-11-23T03:53:42.722Z,0
2016-11-23T03:54:43.348Z,0
2016-11-23T03:55:43.969Z,0
2016-11-23T03:56:44.591Z,0
2016-11-23T03:57:45.202Z,0
2016-11-23T03:58:45.816Z,0
2016-11-23T03:59:46.435Z,0
2016-11-23T04:00:47.066Z,0
2016-11-23T04:01:47.690Z,0
2016-11-23T04:02:48.307Z,0
2016-11-23T04:03:48.938Z,0
2016-11-23T04:04:49.559Z,0
2016-11-23T04:05:50.173Z,0
2016-11-23T04:06:50.824Z,0
2016-11-23T04:07:51.436Z,0
2016-11-23T04:08:52.051Z,0
2016-11-23T04:09:52.674Z,0
2016-11-23T04:10:53.291Z,0
2016-11-23T04:11:53.915Z,0
2016-11-23T04:12:54.534Z,0
2016-11-23T04:13:55.154Z,0
2016-11-23T04:14:55.772Z,0
2016-11-23T04:15:56.430Z,0
2016-11-23T04:16:57.038Z,0
2016-11-23T04:17:57.687Z,0
2016-11-23T04:18:58.299Z,0
2016-11-23T04:19:58.924Z,0
2016-11-23T04:20:59.552Z,0
2016-11-23T04:22:00.170Z,0
2016-11-23T04:23:00.874Z,0
2016-11-23T04:24:01.507Z,0
2016-11-23T04:25:02.138Z,0
2016-11-23T04:26:02.800Z,0
2016-11-23T04:27:03.468Z,0
2016-11-23T04:28:04.117Z,0
2016-11-23T04:29:04.742Z,0
2016-11-23T04:30:05.372Z,0
2016-11-23T04:31:06.082Z,0
2016-11-23T04:32:06.702Z,0
2016-11-23T04:33:07.320Z,0
2016-11-23T04:34:07.942Z,0
2016-11-23T04:35:08.573Z,0
2016-11-23T04:36:09.205Z,0
2016-11-23T04:37:09.837Z,0
2016-11-23T04:38:10.504Z,0
2016-11-23T04:39:11.139Z,0
2016-11-23T04:40:11.748Z,0
2016-11-23T04:41:12.369Z,0
2016-11-23T04:42:12.999Z,0
2016-11-23T04:43:13.619Z,0
2016-11-23T04:44:14.251Z,0
2016-11-23T04:45:14.908Z,0
2016-11-23T04:46:15.567Z,0
2016-11-23T04:47:16.189Z,0
2016-11-23T04:48:16.815Z,0
2016-11-23T04:49:17.459Z,0
2016-11-23T04:50:18.075Z,0
2016-11-23T04:51:18.702Z,0
2016-11-23T04:52:19.317Z,0
2016-11-23T04:53:19.937Z,0
2016-11-23T04:54:20.563Z,0
2016-11-23T04:55:21.168Z,0
2016-11-23T04:56:21.794Z,0
2016-11-23T04:57:22.423Z,0
2016-11-23T04:58:23.033Z,0
2016-11-23T04:59:23.774Z,0
2016-11-23T05:00:24.418Z,0
2016-11-23T05:01:25.047Z,0
2016-11-23T05:02:25.663Z,0
2016-11-23T05:03:26.281Z,0
2016-11-23T05:04:26.909Z,0
2016-11-23T05:05:27.534Z,0
2016-11-23T05:06:28.293Z,0
2016-11-23T05:07:28.929Z,0
2016-11-23T05:08:29.548Z,0
2016-11-23T05:09:30.176Z,0
2016-11-23T05:10:30.794Z,0
2016-11-23T05:11:31.420Z,0
2016-11-23T05:12:32.037Z,0
2016-11-23T05:13:32.654Z,0
2016-11-23T05:14:33.291Z,0
2016-11-23T05:15:33.911Z,0
2016-11-23T05:16:34.547Z,0
2016-11-23T05:17:35.207Z,0
2016-11-23T05:18:35.837Z,0
2016-11-23T05:19:36.453Z,0
2016-11-23T05:20:37.086Z,0
2016-11-23T05:21:37.720Z,0
2016-11-23T05:22:38.314Z,0
2016-11-23T05:23:38.939Z,0
2016-11-23T05:24:39.568Z,0
2016-11-23T05:25:40.201Z,0
2016-11-23T05:26:40.821Z,0
2016-11-23T05:27:41.437Z,0
2016-11-23T05:28:42.054Z,0
2016-11-23T05:29:42.693Z,0
2016-11-23T05:30:43.417Z,0
2016-11-23T05:31:44.027Z,0
2016-11-23T05:32:44.651Z,0
2016-11-23T05:33:45.280Z,0
2016-11-23T05:34:45.899Z,0
2016-11-23T05:35:46.546Z,0
2016-11-23T05:36:47.239Z,0
2016-11-23T05:37:47.892Z,0
2016-11-23T05:38:49.337Z,0
2016-11-23T05:39:50.308Z,0
2016-11-23T05:40:50.933Z,0
2016-11-23T05:41:51.708Z,0
2016-11-23T05:42:52.323Z,0
2016-11-23T05:43:52.929Z,0
2016-11-23T05:44:53.547Z,0
2016-11-23T05:45:54.174Z,0
2016-11-23T05:46:54.794Z,0
2016-11-23T05:47:55.430Z,0
2016-11-23T05:48:56.052Z,0
2016-11-23T05:49:56.663Z,0
2016-11-23T05:50:57.293Z,0
2016-11-23T05:51:57.917Z,0
2016-11-23T05:52:58.540Z,0
2016-11-23T05:53:59.160Z,0
2016-11-23T05:54:59.783Z,0
2016-11-23T05:56:00.400Z,0
2016-11-23T05:57:01.013Z,0
2016-11-23T05:58:01.620Z,0
2016-11-23T05:59:02.257Z,0
2016-11-23T06:00:02.884Z,0
2016-11-23T06:01:03.506Z,0
2016-11-23T06:02:04.135Z,0
2016-11-23T06:03:04.752Z,0
2016-11-23T06:04:05.369Z,0
2016-11-23T06:05:05.982Z,0
2016-11-23T06:06:06.629Z,0
2016-11-23T06:07:07.265Z,0
2016-11-23T06:08:07.883Z,0
2016-11-23T06:09:08.498Z,0
2016-11-23T06:10:09.140Z,0
2016-11-23T06:11:09.872Z,0
2016-11-23T06:12:10.584Z,0
2016-11-23T06:13:11.275Z,0
2016-11-23T06:14:11.891Z,0
2016-11-23T06:15:12.523Z,0
2016-11-23T06:16:13.144Z,0
2016-11-23T06:17:13.797Z,0
2016-11-23T06:18:14.479Z,0
2016-11-23T06:19:15.141Z,0
2016-11-23T06:20:15.824Z,0
2016-11-23T06:21:16.456Z,0
2016-11-23T06:22:17.088Z,0
2016-11-23T06:23:17.727Z,0
2016-11-23T06:24:18.355Z,0
2016-11-23T06:25:19.003Z,0
2016-11-23T06:26:19.619Z,0
2016-11-23T06:27:20.234Z,0
2016-11-23T06:28:20.873Z,4
2016-11-23T06:29:21.493Z,4
2016-11-23T06:30:22.487Z,4
2016-11-23T06:31:23.130Z,0
2016-11-23T06:32:23.715Z,4
2016-11-23T06:33:24.446Z,4
2016-11-23T06:34:25.162Z,4
2016-11-23T06:35:25.778Z,8
2016-11-23T06:36:26.401Z,4
2016-11-23T06:37:27.024Z,8
2016-11-23T06:38:27.691Z,8
2016-11-23T06:39:28.324Z,8
2016-11-23T06:40:28.941Z,8
2016-11-23T06:41:29.575Z,12
2016-11-23T06:42:30.187Z,12
2016-11-23T06:43:30.798Z,12
2016-11-23T06:44:31.410Z,16
2016-11-23T06:45:32.051Z,20
2016-11-23T06:46:32.706Z,20
2016-11-23T06:47:33.429Z,28
2016-11-23T06:48:34.217Z,28
2016-11-23T06:49:34.871Z,28
2016-11-23T06:50:35.515Z,36
2016-11-23T06:51:36.157Z,36
2016-11-23T06:52:36.838Z,44
2016-11-23T06:53:37.482Z,48
2016-11-23T06:54:38.101Z,52
2016-11-23T06:55:38.757Z,60
2016-11-23T06:56:39.407Z,60
2016-11-23T06:57:40.081Z,64
2016-11-23T06:58:40.752Z,68
2016-11-23T06:59:41.376Z,72
2016-11-23T07:00:42.021Z,76
2016-11-23T07:01:42.683Z,80
2016-11-23T07:02:43.358Z,88
2016-11-23T07:03:44.000Z,92
2016-11-23T07:04:44.649Z,108
2016-11-23T07:05:45.283Z,120
2016-11-23T07:06:45.921Z,136
2016-11-23T07:07:46.566Z,144
2016-11-23T07:08:47.281Z,160
2016-11-23T07:09:47.905Z,176
2016-11-23T07:10:48.551Z,184
2016-11-23T07:11:49.197Z,196
2016-11-23T07:12:49.854Z,204
2016-11-23T07:13:50.511Z,220
2016-11-23T07:14:51.136Z,232
2016-11-23T07:15:51.776Z,248
2016-11-23T07:16:52.413Z,268
2016-11-23T07:17:53.142Z,276
2016-11-23T07:18:53.861Z,280
2016-11-23T07:19:54.476Z,296
2016-11-23T07:20:55.098Z,300
2016-11-23T07:21:55.736Z,308
2016-11-23T07:22:56.391Z,312
2016-11-23T07:23:57.013Z,324
2016-11-23T07:24:57.657Z,344
2016-11-23T07:25:58.270Z,368
2016-11-23T07:26:58.894Z,392
2016-11-23T07:27:59.509Z,420
2016-11-23T07:29:00.138Z,432
2016-11-23T07:30:00.747Z,452
2016-11-23T07:31:01.377Z,472
2016-11-23T07:32:02.006Z,484
2016-11-23T07:33:02.672Z,488
2016-11-23T07:34:03.287Z,488
2016-11-23T07:35:03.915Z,464
2016-11-23T07:36:04.531Z,484
2016-11-23T07:37:05.172Z,544
2016-11-23T07:38:05.795Z,560
2016-11-23T07:39:06.430Z,560
2016-11-23T07:40:07.037Z,604
2016-11-23T07:41:07.704Z,688
2016-11-23T07:42:08.338Z,728
2016-11-23T07:43:08.967Z,708
2016-11-23T07:44:09.604Z,712
2016-11-23T07:45:10.231Z,712
2016-11-23T07:46:10.873Z,676
2016-11-23T07:47:11.507Z,704
2016-11-23T07:48:12.164Z,776
2016-11-23T07:49:12.807Z,816
2016-11-23T07:50:13.429Z,812
2016-11-23T07:51:14.099Z,840
2016-11-23T07:52:14.725Z,868
2016-11-23T07:53:15.346Z,900
2016-11-23T07:54:16.022Z,912
2016-11-23T07:55:16.634Z,916
2016-11-23T07:56:17.254Z,916
2016-11-23T07:57:17.883Z,936
2016-11-23T07:58:18.583Z,916
2016-11-23T07:59:19.265Z,900
2016-11-23T08:00:19.923Z,928
2016-11-23T08:01:20.568Z,988
2016-11-23T08:02:21.188Z,1056
2016-11-23T08:03:21.916Z,1088
2016-11-23T08:04:22.552Z,1100
2016-11-23T08:05:23.170Z,1112
2016-11-23T08:06:23.796Z,1128
2016-11-23T08:07:24.442Z,1164
2016-11-23T08:08:25.093Z,1172
2016-11-23T08:09:25.708Z,1156
2016-11-23T08:10:26.390Z,1144
2016-11-23T08:11:27.002Z,1116
2016-11-23T08:12:27.619Z,1124
2016-11-23T08:13:28.244Z,1156
2016-11-23T08:14:28.889Z,1184
2016-11-23T08:15:29.523Z,1136
2016-11-23T08:16:30.167Z,1020
2016-11-23T08:17:30.794Z,956
2016-11-23T08:18:31.440Z,928
2016-11-23T08:19:32.060Z,960
2016-11-23T08:20:32.708Z,1012
2016-11-23T08:21:33.350Z,1016
2016-11-23T08:22:33.982Z,1064
2016-11-23T08:23:34.603Z,1152
2016-11-23T08:24:35.224Z,1276
2016-11-23T08:25:35.846Z,1368
2016-11-23T08:26:36.538Z,1368
2016-11-23T08:27:37.230Z,1348
2016-11-23T08:28:37.875Z,1292
2016-11-23T08:29:38.496Z,1252
2016-11-23T08:30:39.152Z,1200
2016-11-23T08:31:39.782Z,1184
2016-11-23T08:32:40.413Z,1180
2016-11-23T08:33:41.032Z,1196
2016-11-23T08:34:41.691Z,1244
2016-11-23T08:35:42.302Z,1280
2016-11-23T08:36:42.934Z,1344
2016-11-23T08:37:43.630Z,1432
2016-11-23T08:38:44.286Z,1492
2016-11-23T08:39:44.902Z,1532
2016-11-23T08:40:45.565Z,1576
2016-11-23T08:41:46.207Z,1544
2016-11-23T08:42:46.838Z,1552
2016-11-23T08:43:47.480Z,1572
2016-11-23T08:44:48.121Z,1580
2016-11-23T08:45:48.743Z,1652
2016-11-23T08:46:49.358Z,1692
2016-11-23T08:47:49.998Z,1760
2016-11-23T08:48:50.706Z,1884
2016-11-23T08:49:51.352Z,1992
2016-11-23T08:50:51.980Z,2036
2016-11-23T08:51:52.621Z,2008
2016-11-23T08:52:53.249Z,1964
2016-11-23T08:53:53.930Z,1916
2016-11-23T08:54:54.551Z,2016
2016-11-23T08:55:55.173Z,2152
2016-11-23T08:56:55.807Z,2292
2016-11-23T08:57:56.432Z,2464
2016-11-23T08:58:57.108Z,2560
2016-11-23T08:59:57.753Z,2576
2016-11-23T09:00:58.379Z,2632
2016-11-23T09:01:59.077Z,2652
2016-11-23T09:02:59.797Z,2808
2016-11-23T09:04:00.443Z,2864
2016-11-23T09:05:01.157Z,2936
2016-11-23T09:06:01.865Z,3156
2016-11-23T09:07:02.498Z,3124
2016-11-23T09:08:03.174Z,2912
2016-11-23T09:09:04.108Z,2696
2016-11-23T09:10:04.810Z,2508
2016-11-23T09:11:05.696Z,2324
2016-11-23T09:12:06.323Z,2128
2016-11-23T09:13:07.006Z,2128
2016-11-23T09:14:07.649Z,2216
2016-11-23T09:15:08.442Z,2368
2016-11-23T09:16:09.335Z,2512
2016-11-23T09:17:10.038Z,2708
2016-11-23T09:18:10.745Z,2872
2016-11-23T09:19:11.452Z,2948
2016-11-23T09:20:12.115Z,2920
2016-11-23T09:21:12.780Z,2796
2016-11-23T09:22:13.650Z,2692
2016-11-23T09:23:14.326Z,2476
2016-11-23T09:24:14.997Z,2380
2016-11-23T09:25:15.647Z,2272
2016-11-23T09:26:16.464Z,2160
2016-11-23T09:27:17.106Z,2236
2016-11-23T09:28:17.758Z,2328
2016-11-23T09:29:18.399Z,2512
2016-11-23T09:30:19.025Z,2876
2016-11-23T09:31:19.660Z,3192
2016-11-23T09:32:20.320Z,3364
2016-11-23T09:33:20.967Z,3528
2016-11-23T09:34:21.624Z,3724
2016-11-23T09:35:22.286Z,3840
2016-11-23T09:36:22.932Z,3908
2016-11-23T09:37:23.674Z,3928
2016-11-23T09:38:24.330Z,3908
2016-11-23T09:39:24.979Z,3916
2016-11-23T09:40:25.623Z,3932
2016-11-23T09:41:26.359Z,3920
2016-11-23T09:42:27.048Z,3968
2016-11-23T09:43:27.763Z,4028
2016-11-23T09:44:28.346Z,4104
2016-11-23T09:45:29.012Z,4200
2016-11-23T09:46:29.648Z,4232
2016-11-23T09:47:30.305Z,4252
2016-11-23T09:48:30.963Z,4228
2016-11-23T09:49:31.736Z,4216
2016-11-23T09:50:32.409Z,4220
2016-11-23T09:51:32.986Z,4236
2016-11-23T09:52:33.667Z,4232
2016-11-23T09:53:34.394Z,4260
2016-11-23T09:54:35.080Z,4312
2016-11-23T09:55:35.817Z,4412
2016-11-23T09:56:36.502Z,4528
2016-11-23T09:57:37.199Z,4648
2016-11-23T09:58:37.852Z,4812
2016-11-23T09:59:38.596Z,5004
2016-11-23T10:00:39.388Z,5140
2016-11-23T10:01:40.011Z,5172
2016-11-23T10:02:40.661Z,5196
2016-11-23T10:03:41.325Z,5232
2016-11-23T10:04:41.992Z,5228
2016-11-23T10:05:42.651Z,5188
2016-11-23T10:06:43.308Z,5148
2016-11-23T10:07:43.963Z,5124
2016-11-23T10:08:44.592Z,5092
2016-11-23T10:09:45.214Z,5072
2016-11-23T10:10:45.859Z,4988
2016-11-23T10:11:46.505Z,4952
2016-11-23T10:12:47.130Z,4920
2016-11-23T10:13:47.820Z,4900
2016-11-23T10:14:48.454Z,4960
2016-11-23T10:15:49.089Z,5028
2016-11-23T10:16:49.743Z,5100
2016-11-23T10:17:50.378Z,5116
2016-11-23T10:18:51.003Z,5108
2016-11-23T10:19:51.628Z,5088
2016-11-23T10:20:52.258Z,5052
2016-11-23T10:21:52.894Z,5068
2016-11-23T10:22:53.513Z,5088
2016-11-23T10:23:54.155Z,5132
2016-11-23T10:24:54.783Z,5132
2016-11-23T10:25:55.406Z,5196
2016-11-23T10:26:56.092Z,5312
2016-11-23T10:27:56.720Z,5416
2016-11-23T10:28:57.377Z,5440
2016-11-23T10:29:58.007Z,5496
2016-11-23T10:30:58.656Z,5540
2016-11-23T10:31:59.309Z,5568
2016-11-23T10:32:59.944Z,5672
2016-11-23T10:34:00.589Z,5640
2016-11-23T10:35:01.279Z,5616
2016-11-23T10:36:01.960Z,5656
2016-11-23T10:37:02.648Z,5728
2016-11-23T10:38:03.292Z,5812
2016-11-23T10:39:03.927Z,5892
2016-11-23T10:40:04.549Z,5912
2016-11-23T10:41:05.200Z,6000
2016-11-23T10:42:05.829Z,6116
2016-11-23T10:43:06.457Z,6212
2016-11-23T10:44:07.098Z,6280
2016-11-23T10:45:07.712Z,6268
2016-11-23T10:46:08.337Z,6168
2016-11-23T10:47:08.970Z,6040
2016-11-23T10:48:09.592Z,5876
2016-11-23T10:49:10.241Z,5816
2016-11-23T10:50:10.865Z,5808
2016-11-23T10:51:11.481Z,5812
2016-11-23T10:52:12.105Z,5784
2016-11-23T10:53:12.729Z,5696
2016-11-23T10:54:13.351Z,5552
2016-11-23T10:55:13.969Z,5484
2016-11-23T10:56:14.585Z,5480
2016-11-23T10:57:15.209Z,5524
2016-11-23T10:58:15.825Z,5568
2016-11-23T10:59:16.458Z,5568
2016-11-23T11:00:17.084Z,5532
2016-11-23T11:01:17.723Z,5468
2016-11-23T11:02:18.340Z,5404
2016-11-23T11:03:18.975Z,5344
2016-11-23T11:04:19.599Z,5300
2016-11-23T11:05:20.216Z,5276
2016-11-23T11:06:20.841Z,5256
2016-11-23T11:07:21.471Z,5228
2016-11-23T11:08:22.121Z,5168
2016-11-23T11:09:22.757Z,5096
2016-11-23T11:10:23.376Z,5052
2016-11-23T11:11:24.008Z,5016
2016-11-23T11:12:24.649Z,5004
2016-11-23T11:13:25.289Z,4968
2016-11-23T11:14:25.910Z,4928
2016-11-23T11:15:26.547Z,4880
2016-11-23T11:16:27.174Z,4848
2016-11-23T11:17:27.808Z,4800
2016-11-23T11:18:28.457Z,4760
2016-11-23T11:19:29.111Z,4740
2016-11-23T11:20:29.734Z,4744
2016-11-23T11:21:30.355Z,4744
2016-11-23T11:22:30.980Z,4764
2016-11-23T11:23:31.603Z,4792
2016-11-23T11:24:32.230Z,4804
2016-11-23T11:25:32.860Z,4836
2016-11-23T11:26:33.491Z,4900
2016-11-23T11:27:34.111Z,4920
2016-11-23T11:28:34.739Z,4884
2016-11-23T11:29:35.364Z,4848
2016-11-23T11:30:36.018Z,4820
2016-11-23T11:31:36.639Z,4788
2016-11-23T11:32:37.267Z,4756
2016-11-23T11:33:37.899Z,4732
2016-11-23T11:34:38.529Z,4732
2016-11-23T11:35:39.156Z,4728
2016-11-23T11:36:39.777Z,4720
2016-11-23T11:37:40.389Z,4736
2016-11-23T11:38:41.005Z,4776
2016-11-23T11:39:41.645Z,4812
2016-11-23T11:40:42.275Z,4820
2016-11-23T11:41:42.899Z,4820
2016-11-23T11:42:43.556Z,4824
2016-11-23T11:43:44.195Z,4812
2016-11-23T11:44:44.817Z,4820
2016-11-23T11:45:45.452Z,4856
2016-11-23T11:46:46.092Z,4892
2016-11-23T11:47:46.750Z,4924
2016-11-23T11:48:47.367Z,4944
2016-11-23T11:49:47.992Z,4980
2016-11-23T11:50:48.637Z,5008
2016-11-23T11:51:49.258Z,5056
2016-11-23T11:52:49.876Z,5060
2016-11-23T11:53:50.503Z,5056
2016-11-23T11:54:51.132Z,5028
2016-11-23T11:55:51.794Z,4972
2016-11-23T11:56:52.441Z,4896
2016-11-23T11:57:53.062Z,4820
2016-11-23T11:58:53.685Z,4748
2016-11-23T11:59:54.308Z,4692
2016-11-23T12:00:54.964Z,4640
2016-11-23T12:01:55.586Z,4616
2016-11-23T12:02:56.226Z,4596
2016-11-23T12:03:56.865Z,4588
2016-11-23T12:04:57.486Z,4600
2016-11-23T12:05:58.175Z,4532
2016-11-23T12:06:58.793Z,4444
2016-11-23T12:07:59.417Z,4380
2016-11-23T12:09:00.041Z,4364
2016-11-23T12:10:00.658Z,4388
2016-11-23T12:11:01.286Z,4480
2016-11-23T12:12:01.913Z,4560
2016-11-23T12:13:02.535Z,4540
2016-11-23T12:14:03.163Z,4480
2016-11-23T12:15:03.808Z,4420
2016-11-23T12:16:04.447Z,4376
2016-11-23T12:17:05.150Z,4380
2016-11-23T12:18:05.778Z,4384
2016-11-23T12:19:06.399Z,4392
2016-11-23T12:20:07.026Z,4400
2016-11-23T12:21:07.668Z,4440
2016-11-23T12:22:08.316Z,4476
2016-11-23T12:23:08.946Z,4508
2016-11-23T12:24:09.587Z,4516
2016-11-23T12:25:10.219Z,4536
2016-11-23T12:26:10.845Z,4536
2016-11-23T12:27:11.483Z,4516
2016-11-23T12:28:12.244Z,4480
2016-11-23T12:29:12.883Z,4432
2016-11-23T12:30:13.499Z,4388
2016-11-23T12:31:14.126Z,4336
2016-11-23T12:32:14.750Z,4280
2016-11-23T12:33:15.380Z,4232
2016-11-23T12:34:16.003Z,4156
2016-11-23T12:35:16.619Z,4056
2016-11-23T12:36:17.234Z,3968
2016-11-23T12:37:17.857Z,3888
2016-11-23T12:38:18.492Z,3804
2016-11-23T12:39:19.119Z,3728
2016-11-23T12:40:19.747Z,3684
2016-11-23T12:41:20.376Z,3636
2016-11-23T12:42:21.006Z,3604
2016-11-23T12:43:21.635Z,3608
2016-11-23T12:44:22.285Z,3608
2016-11-23T12:45:22.910Z,3552
2016-11-23T12:46:23.588Z,3484
2016-11-23T12:47:24.211Z,3472
2016-11-23T12:48:24.844Z,3496
2016-11-23T12:49:25.471Z,3500
2016-11-23T12:50:26.323Z,3504
2016-11-23T12:51:26.946Z,3492
2016-11-23T12:52:27.565Z,3492
2016-11-23T12:53:28.203Z,3472
2016-11-23T12:54:28.825Z,3460
2016-11-23T12:55:29.455Z,3460
2016-11-23T12:56:30.094Z,3508
2016-11-23T12:57:30.715Z,3600
2016-11-23T12:58:31.351Z,3676
2016-11-23T12:59:31.974Z,3716
2016-11-23T13:00:32.649Z,3764
2016-11-23T13:01:33.337Z,3800
2016-11-23T13:02:33.953Z,3832
2016-11-23T13:03:34.576Z,3832
2016-11-23T13:04:35.193Z,3808
2016-11-23T13:05:35.816Z,3768
2016-11-23T13:06:36.441Z,3736
2016-11-23T13:07:37.058Z,3684
2016-11-23T13:08:37.764Z,3612
2016-11-23T13:09:38.406Z,3564
2016-11-23T13:10:39.020Z,3504
2016-11-23T13:11:39.648Z,3412
2016-11-23T13:12:40.372Z,3348
2016-11-23T13:13:40.992Z,3292
2016-11-23T13:14:41.607Z,3252
2016-11-23T13:15:42.225Z,3228
2016-11-23T13:16:42.844Z,3208
2016-11-23T13:17:43.468Z,3168
2016-11-23T13:18:44.272Z,3128
2016-11-23T13:19:44.895Z,3092
2016-11-23T13:20:45.535Z,3044
2016-11-23T13:21:46.161Z,2992
2016-11-23T13:22:46.826Z,2960
2016-11-23T13:23:47.420Z,2952
2016-11-23T13:24:48.067Z,2964
2016-11-23T13:25:48.730Z,2976
2016-11-23T13:26:49.363Z,2980
2016-11-23T13:27:50.028Z,2968
2016-11-23T13:28:50.701Z,2924
2016-11-23T13:29:51.333Z,2868
2016-11-23T13:30:51.952Z,2832
2016-11-23T13:31:52.610Z,2804
2016-11-23T13:32:53.254Z,2768
2016-11-23T13:33:53.894Z,2728
2016-11-23T13:34:54.540Z,2684
2016-11-23T13:35:55.161Z,2632
2016-11-23T13:36:55.781Z,2576
2016-11-23T13:37:56.415Z,2508
2016-11-23T13:38:57.047Z,2436
2016-11-23T13:39:57.686Z,2360
2016-11-23T13:40:58.369Z,2288
2016-11-23T13:41:58.994Z,2228
2016-11-23T13:42:59.616Z,2176
2016-11-23T13:44:00.234Z,2128
2016-11-23T13:45:00.893Z,2080
2016-11-23T13:46:01.530Z,2036
2016-11-23T13:47:02.148Z,1996
2016-11-23T13:48:02.772Z,1960
2016-11-23T13:49:03.394Z,1924
2016-11-23T13:50:04.009Z,1892
2016-11-23T13:51:04.665Z,1872
2016-11-23T13:52:05.391Z,1856
2016-11-23T13:53:06.017Z,1860
2016-11-23T13:54:06.646Z,1880
2016-11-23T13:55:07.261Z,1924
2016-11-23T13:56:07.888Z,1976
2016-11-23T13:57:08.513Z,2024
2016-11-23T13:58:09.155Z,2060
2016-11-23T13:59:09.797Z,2096
2016-11-23T14:00:10.402Z,2112
2016-11-23T14:01:11.026Z,2132
2016-11-23T14:02:11.659Z,2132
2016-11-23T14:03:12.289Z,2124
2016-11-23T14:04:12.914Z,2120
2016-11-23T14:05:13.540Z,2112
2016-11-23T14:06:14.161Z,2084
2016-11-23T14:07:14.800Z,2044
2016-11-23T14:08:15.440Z,1996
2016-11-23T14:09:16.057Z,1940
2016-11-23T14:10:16.700Z,1876